createdAt,value
2018-03-27T00:01:46.097Z,-3.10
2018-03-27T00:04:13.044Z,-3.10
2018-03-27T00:06:40.013Z,-3.00
2018-03-27T00:09:06.228Z,-3.10
2018-03-27T00:11:33.147Z,-3.00
2018-03-27T00:13:59.338Z,-3.00
2018-03-27T00:16:25.549Z,-2.90
2018-03-27T00:18:52.499Z,-2.90
2018-03-27T00:21:18.662Z,-3.00
2018-03-27T00:23:44.831Z,-2.90
2018-03-27T00:26:11.041Z,-3.00
2018-03-27T00:28:49.751Z,-3.00
2018-03-27T00:31:28.231Z,-2.90
2018-03-27T00:34:06.759Z,-2.90
2018-03-27T00:36:45.256Z,-2.90
2018-03-27T00:39:23.978Z,-2.90
2018-03-27T00:44:59.959Z,-3.00
2018-03-27T00:47:26.128Z,-2.90
2018-03-27T00:49:52.318Z,-2.90
2018-03-27T00:52:18.519Z,-2.90
2018-03-27T00:54:45.423Z,-2.90
2018-03-27T00:57:11.602Z,-3.00
2018-03-27T00:59:38.579Z,-2.80
2018-03-27T01:02:04.807Z,-2.90
2018-03-27T01:04:31.007Z,-2.90
2018-03-27T01:06:57.945Z,-2.90
2018-03-27T01:09:24.151Z,-3.00
2018-03-27T01:11:50.353Z,-3.00
2018-03-27T01:14:16.568Z,-3.00
2018-03-27T01:16:43.487Z,-2.80
2018-03-27T01:19:09.675Z,-2.90
2018-03-27T01:21:35.894Z,-2.80
2018-03-27T01:24:02.080Z,-2.80
2018-03-27T01:26:28.296Z,-2.90
2018-03-27T01:28:54.509Z,-2.90
2018-03-27T01:31:20.724Z,-3.00
2018-03-27T01:33:46.947Z,-3.00
2018-03-27T01:36:13.882Z,-3.00
2018-03-27T01:38:40.126Z,-3.00
2018-03-27T01:41:07.038Z,-3.00
2018-03-27T01:43:33.950Z,-3.10
2018-03-27T01:46:00.151Z,-3.10
2018-03-27T01:48:26.384Z,-3.10
2018-03-27T01:50:52.596Z,-3.00
2018-03-27T01:53:18.808Z,-3.00
2018-03-27T01:55:45.000Z,-3.00
2018-03-27T01:58:11.985Z,-3.00
2018-03-27T02:00:38.210Z,-3.10
2018-03-27T02:03:04.391Z,-2.90
2018-03-27T02:05:32.060Z,-3.10
2018-03-27T02:07:58.262Z,-3.10
2018-03-27T02:10:24.447Z,-3.00
2018-03-27T02:12:57.519Z,-3.00
2018-03-27T02:15:30.675Z,-3.00
2018-03-27T02:18:02.997Z,-3.10
2018-03-27T02:20:36.071Z,-3.10
2018-03-27T02:23:08.227Z,-3.20
2018-03-27T02:25:34.412Z,-3.10
2018-03-27T02:28:00.618Z,-3.20
2018-03-27T02:30:27.577Z,-3.10
2018-03-27T02:32:54.503Z,-3.10
2018-03-27T02:35:20.701Z,-3.20
2018-03-27T02:37:46.895Z,-3.10
2018-03-27T02:40:13.079Z,-3.10
2018-03-27T02:42:39.327Z,-3.10
2018-03-27T02:45:05.524Z,-3.10
2018-03-27T02:47:31.729Z,-3.20
2018-03-27T02:49:57.966Z,-3.20
2018-03-27T02:52:24.139Z,-3.20
2018-03-27T02:54:50.306Z,-3.20
2018-03-27T02:57:17.269Z,-3.30
2018-03-27T02:59:44.176Z,-3.30
2018-03-27T03:02:10.434Z,-3.40
2018-03-27T03:04:36.633Z,-3.30
2018-03-27T03:07:02.866Z,-3.30
2018-03-27T03:09:29.131Z,-3.20
2018-03-27T03:11:55.288Z,-3.20
2018-03-27T03:14:22.262Z,-3.40
2018-03-27T03:16:48.519Z,-3.50
2018-03-27T03:19:14.696Z,-3.40
2018-03-27T03:21:41.636Z,-3.40
2018-03-27T03:24:07.833Z,-3.50
2018-03-27T03:26:34.031Z,-3.40
2018-03-27T03:29:00.271Z,-3.50
2018-03-27T03:31:26.432Z,-3.40
2018-03-27T03:33:52.623Z,-3.50
2018-03-27T03:36:19.540Z,-3.40
2018-03-27T03:38:45.792Z,-3.50
2018-03-27T03:41:12.702Z,-3.50
2018-03-27T03:43:38.874Z,-3.60
2018-03-27T03:46:05.818Z,-3.50
2018-03-27T03:48:32.738Z,-3.50
2018-03-27T03:50:58.943Z,-3.60
2018-03-27T03:53:25.138Z,-3.50
2018-03-27T03:55:52.059Z,-3.50
2018-03-27T03:58:18.259Z,-3.50
2018-03-27T04:00:44.432Z,-3.50
2018-03-27T04:03:11.394Z,-3.50
2018-03-27T04:05:37.570Z,-3.60
2018-03-27T04:08:03.796Z,-3.50
2018-03-27T04:10:30.010Z,-3.50
2018-03-27T04:12:56.906Z,-3.50
2018-03-27T04:15:23.074Z,-3.60
2018-03-27T04:17:49.270Z,-3.50
2018-03-27T04:20:15.455Z,-3.60
2018-03-27T04:22:42.379Z,-3.50
2018-03-27T04:25:08.615Z,-3.60
2018-03-27T04:27:34.795Z,-3.60
2018-03-27T04:30:00.983Z,-3.60
2018-03-27T04:32:27.192Z,-3.60
2018-03-27T04:34:53.367Z,-3.60
2018-03-27T04:37:20.303Z,-3.50
2018-03-27T04:39:46.504Z,-3.60
2018-03-27T04:42:12.698Z,-3.50
2018-03-27T04:44:38.854Z,-3.40
2018-03-27T04:47:05.056Z,-3.40
2018-03-27T04:49:31.263Z,-3.50
2018-03-27T04:51:57.431Z,-3.50
2018-03-27T04:54:23.599Z,-3.40
2018-03-27T04:56:49.794Z,-3.50
2018-03-27T04:59:15.974Z,-3.50
2018-03-27T05:01:42.179Z,-3.60
2018-03-27T05:04:08.395Z,-3.60
2018-03-27T05:06:34.630Z,-3.60
2018-03-27T05:09:00.818Z,-3.60
2018-03-27T05:11:27.006Z,-3.60
2018-03-27T05:13:53.203Z,-3.60
2018-03-27T05:16:20.174Z,-3.60
2018-03-27T05:18:46.350Z,-3.70
2018-03-27T05:21:12.529Z,-3.60
2018-03-27T05:23:38.808Z,-3.60
2018-03-27T05:26:05.004Z,-3.60
2018-03-27T05:28:31.196Z,-3.60
2018-03-27T05:30:57.452Z,-3.60
2018-03-27T05:33:24.380Z,-3.50
2018-03-27T05:35:50.585Z,-3.60
2018-03-27T05:38:16.759Z,-3.50
2018-03-27T05:40:42.967Z,-3.50
2018-03-27T05:43:09.143Z,-3.50
2018-03-27T05:45:35.410Z,-3.50
2018-03-27T05:48:01.635Z,-3.40
2018-03-27T05:50:27.816Z,-3.30
2018-03-27T05:52:54.041Z,-3.30
2018-03-27T05:55:20.271Z,-3.30
2018-03-27T05:57:46.479Z,-3.30
2018-03-27T06:00:12.721Z,-3.40
2018-03-27T06:02:38.936Z,-3.30
2018-03-27T06:05:05.170Z,-3.30
2018-03-27T06:07:31.348Z,-3.20
2018-03-27T06:09:57.539Z,-3.20
2018-03-27T06:12:23.795Z,-3.00
2018-03-27T06:14:49.998Z,-3.10
2018-03-27T06:17:16.195Z,-3.10
2018-03-27T06:19:43.359Z,-3.10
2018-03-27T06:22:10.271Z,-3.20
2018-03-27T06:24:36.439Z,-3.20
2018-03-27T06:27:03.407Z,-3.20
2018-03-27T06:29:29.585Z,-3.30
2018-03-27T06:31:55.815Z,-3.20
2018-03-27T06:34:21.986Z,-3.10
2018-03-27T06:36:48.907Z,-2.90
2018-03-27T06:39:15.126Z,-3.00
2018-03-27T06:41:41.303Z,-2.90
2018-03-27T06:44:08.232Z,-3.00
2018-03-27T06:46:34.444Z,-3.10
2018-03-27T06:49:00.647Z,-3.10
2018-03-27T06:51:26.847Z,-3.10
2018-03-27T06:53:53.778Z,-3.20
2018-03-27T06:56:19.986Z,-3.30
2018-03-27T06:58:46.221Z,-3.30
2018-03-27T07:01:12.438Z,-3.20
2018-03-27T07:03:38.635Z,-3.20
2018-03-27T07:06:05.567Z,-3.00
2018-03-27T07:08:32.589Z,-3.10
2018-03-27T07:10:58.792Z,-3.10
2018-03-27T07:13:25.684Z,-3.10
2018-03-27T07:15:51.965Z,-3.20
2018-03-27T07:18:18.187Z,-3.10
2018-03-27T07:20:45.098Z,-3.00
2018-03-27T07:23:11.279Z,-3.00
2018-03-27T07:25:37.475Z,-3.00
2018-03-27T07:28:03.732Z,-2.90
2018-03-27T07:30:30.632Z,-2.80
2018-03-27T07:32:56.799Z,-2.80
2018-03-27T07:35:23.023Z,-2.70
2018-03-27T07:37:49.204Z,-2.70
2018-03-27T07:40:15.395Z,-2.90
2018-03-27T07:42:41.607Z,-2.90
2018-03-27T07:45:07.803Z,-2.80
2018-03-27T07:47:34.023Z,-2.70
2018-03-27T07:50:00.960Z,-2.50
2018-03-27T07:52:27.909Z,-2.50
2018-03-27T07:54:54.826Z,-2.30
2018-03-27T07:57:20.995Z,-2.30
2018-03-27T07:59:47.440Z,-2.20
2018-03-27T08:02:13.639Z,-2.30
2018-03-27T08:04:40.564Z,-2.10
2018-03-27T08:07:06.867Z,-2.20
2018-03-27T08:09:33.063Z,-2.10
2018-03-27T08:11:59.271Z,-2.20
2018-03-27T08:14:25.481Z,-2.10
2018-03-27T08:16:51.650Z,-2.20
2018-03-27T08:19:17.876Z,-2.10
2018-03-27T08:21:44.101Z,-2.10
2018-03-27T08:24:10.406Z,-2.00
2018-03-27T08:26:37.254Z,-2.10
2018-03-27T08:29:03.442Z,-2.10
2018-03-27T08:31:29.646Z,-2.10
2018-03-27T08:33:55.807Z,-2.10
2018-03-27T08:36:22.073Z,-2.10
2018-03-27T08:38:48.260Z,-2.10
2018-03-27T08:41:14.512Z,-2.10
2018-03-27T08:43:40.713Z,-2.20
2018-03-27T08:46:06.999Z,-2.20
2018-03-27T08:48:33.928Z,-2.20
2018-03-27T08:51:00.152Z,-2.20
2018-03-27T08:53:26.371Z,-2.10
2018-03-27T08:55:52.553Z,-2.10
2018-03-27T08:58:19.511Z,-2.00
2018-03-27T09:00:45.726Z,-2.10
2018-03-27T09:03:12.722Z,-2.00
2018-03-27T09:05:38.882Z,-2.10
2018-03-27T09:08:05.090Z,-2.00
2018-03-27T09:10:31.323Z,-1.90
2018-03-27T09:12:57.531Z,-2.00
2018-03-27T09:15:23.710Z,-1.90
2018-03-27T09:17:49.903Z,-1.80
2018-03-27T09:20:16.116Z,-1.70
2018-03-27T09:22:42.296Z,-1.50
2018-03-27T09:25:08.497Z,-1.50
2018-03-27T09:27:34.682Z,-1.50
2018-03-27T09:30:00.892Z,-1.50
2018-03-27T09:32:27.054Z,-1.60
2018-03-27T09:34:53.242Z,-1.50
2018-03-27T09:37:19.498Z,-1.40
2018-03-27T09:39:45.667Z,-1.40
2018-03-27T09:42:12.620Z,-1.60
2018-03-27T09:44:39.530Z,-1.60
2018-03-27T09:47:05.733Z,-1.60
2018-03-27T09:49:31.926Z,-1.50
2018-03-27T09:51:58.871Z,-1.60
2018-03-27T09:54:25.104Z,-1.60
2018-03-27T09:56:51.303Z,-1.60
2018-03-27T09:59:17.547Z,-1.50
2018-03-27T10:01:43.776Z,-1.30
2018-03-27T10:04:09.951Z,-1.20
2018-03-27T10:06:36.886Z,-0.80
2018-03-27T10:09:03.131Z,-0.80
2018-03-27T10:11:30.271Z,-0.80
2018-03-27T10:13:56.454Z,-0.90
2018-03-27T10:16:22.647Z,-0.80
2018-03-27T10:18:49.603Z,-0.80
2018-03-27T10:21:16.571Z,-0.70
2018-03-27T10:23:42.848Z,-0.80
2018-03-27T10:26:09.025Z,-0.70
2018-03-27T10:28:35.951Z,-0.70
2018-03-27T10:31:02.213Z,-0.70
2018-03-27T10:33:29.127Z,-0.50
2018-03-27T10:35:55.343Z,-0.60
2018-03-27T10:38:21.529Z,-0.50
2018-03-27T10:40:48.442Z,-0.50
2018-03-27T10:43:14.684Z,-0.60
2018-03-27T10:45:42.435Z,-0.60
2018-03-27T10:48:08.604Z,-0.60
2018-03-27T10:50:35.543Z,-0.80
2018-03-27T10:53:01.750Z,-0.80
2018-03-27T10:55:27.974Z,-0.60
2018-03-27T10:57:54.155Z,-0.70
2018-03-27T11:00:21.151Z,-0.70
2018-03-27T11:02:47.351Z,-0.80
2018-03-27T11:05:13.562Z,-0.80
2018-03-27T11:07:40.486Z,-0.80
2018-03-27T11:10:06.708Z,-0.80
2018-03-27T11:12:32.922Z,-0.70
2018-03-27T11:14:59.116Z,-0.60
2018-03-27T11:17:26.053Z,-0.60
2018-03-27T11:19:52.263Z,-0.70
2018-03-27T11:22:18.457Z,-0.50
2018-03-27T11:24:44.638Z,-0.60
2018-03-27T11:27:10.878Z,-0.70
2018-03-27T11:29:37.787Z,-0.40
2018-03-27T11:32:03.960Z,-0.50
2018-03-27T11:34:30.207Z,-0.50
2018-03-27T11:36:57.124Z,-0.50
2018-03-27T11:39:23.323Z,-0.60
2018-03-27T11:41:49.536Z,-0.70
2018-03-27T11:44:16.447Z,-0.70
2018-03-27T11:46:42.654Z,-0.70
2018-03-27T11:49:08.861Z,-0.50
2018-03-27T11:51:35.107Z,-0.60
2018-03-27T11:54:01.298Z,-0.60
2018-03-27T11:56:27.466Z,-0.60
2018-03-27T11:58:53.674Z,-0.50
2018-03-27T12:01:20.624Z,-0.40
2018-03-27T12:03:47.607Z,-0.40
2018-03-27T12:06:13.778Z,-0.40
2018-03-27T12:08:39.954Z,-0.40
2018-03-27T12:11:06.179Z,-0.40
2018-03-27T12:13:33.087Z,-0.40
2018-03-27T12:15:59.308Z,-0.50
2018-03-27T12:18:25.488Z,-0.50
2018-03-27T12:20:52.455Z,-0.40
2018-03-27T12:23:20.472Z,-0.40
2018-03-27T12:25:46.677Z,-0.40
2018-03-27T12:28:12.866Z,-0.40
2018-03-27T12:30:39.091Z,-0.50
2018-03-27T12:33:05.298Z,-0.40
2018-03-27T12:35:31.504Z,-0.50
2018-03-27T12:37:57.688Z,-0.60
2018-03-27T12:40:24.643Z,-0.80
2018-03-27T12:42:50.852Z,-0.90
2018-03-27T12:45:17.032Z,-0.90
2018-03-27T12:47:44.093Z,-0.80
2018-03-27T12:50:10.243Z,-0.90
2018-03-27T12:52:36.433Z,-0.80
2018-03-27T12:55:02.631Z,-0.80
2018-03-27T12:57:28.811Z,-0.80
2018-03-27T12:59:55.780Z,-0.50
2018-03-27T13:02:21.958Z,-0.50
2018-03-27T13:04:48.166Z,-0.30
2018-03-27T13:07:14.352Z,-0.20
2018-03-27T13:09:41.287Z,-0.20
2018-03-27T13:12:07.494Z,-0.20
2018-03-27T13:14:33.728Z,-0.10
2018-03-27T13:16:59.951Z,-0.20
2018-03-27T13:19:26.138Z,-0.30
2018-03-27T13:21:53.092Z,-0.50
2018-03-27T13:24:20.108Z,-0.50
2018-03-27T13:26:46.295Z,-0.50
2018-03-27T13:29:13.234Z,-0.60
2018-03-27T13:31:39.451Z,-0.70
2018-03-27T13:34:06.381Z,-0.80
2018-03-27T13:36:32.583Z,-0.80
2018-03-27T13:38:58.871Z,-0.70
2018-03-27T13:41:25.030Z,-0.60
2018-03-27T13:43:51.268Z,-0.60
2018-03-27T13:46:17.467Z,-0.70
2018-03-27T13:48:44.452Z,-0.60
2018-03-27T13:51:10.635Z,-0.70
2018-03-27T13:53:36.913Z,-0.80
2018-03-27T13:56:03.817Z,-1.00
2018-03-27T13:58:30.036Z,-1.00
2018-03-27T14:00:56.336Z,-1.00
2018-03-27T14:03:22.506Z,-1.00
2018-03-27T14:05:55.678Z,-0.90
2018-03-27T14:08:21.844Z,-0.80
2018-03-27T14:10:48.028Z,-0.90
2018-03-27T14:13:14.294Z,-0.90
2018-03-27T14:15:40.476Z,-1.00
2018-03-27T14:18:06.704Z,-1.00
2018-03-27T14:20:33.627Z,-0.90
2018-03-27T14:22:59.811Z,-0.90
2018-03-27T14:25:26.227Z,-0.80
2018-03-27T14:27:53.175Z,-0.60
2018-03-27T14:30:20.119Z,-0.70
2018-03-27T14:32:47.102Z,-0.70
2018-03-27T14:35:13.301Z,-0.80
2018-03-27T14:37:40.216Z,-1.00
2018-03-27T14:40:06.427Z,-1.10
2018-03-27T14:42:32.634Z,-1.00
2018-03-27T14:44:58.853Z,-1.00
2018-03-27T14:47:25.076Z,-1.00
2018-03-27T14:49:52.048Z,-1.30
2018-03-27T14:52:18.311Z,-1.30
2018-03-27T14:54:44.496Z,-1.30
2018-03-27T14:57:11.443Z,-1.50
2018-03-27T14:59:38.513Z,-1.50
2018-03-27T15:02:04.711Z,-1.60
2018-03-27T15:04:30.901Z,-1.50
2018-03-27T15:06:57.147Z,-1.60
2018-03-27T15:09:23.339Z,-1.60
2018-03-27T15:11:50.264Z,-1.70
2018-03-27T15:14:16.475Z,-1.70
2018-03-27T15:16:42.642Z,-1.80
2018-03-27T15:19:09.638Z,-1.80
2018-03-27T15:21:35.835Z,-1.90
2018-03-27T15:24:02.771Z,-1.90
2018-03-27T15:26:28.993Z,-2.00
2018-03-27T15:28:55.192Z,-2.00
2018-03-27T15:31:21.400Z,-2.00
2018-03-27T15:33:47.625Z,-2.00
2018-03-27T15:36:14.596Z,-2.00
2018-03-27T15:38:40.835Z,-2.10
2018-03-27T15:41:07.018Z,-2.00
2018-03-27T15:43:33.214Z,-2.00
2018-03-27T15:45:59.434Z,-2.00
2018-03-27T15:48:25.621Z,-2.10
2018-03-27T15:50:52.632Z,-2.20
2018-03-27T15:53:18.810Z,-2.20
2018-03-27T15:55:45.015Z,-2.20
2018-03-27T15:58:12.049Z,-2.30
2018-03-27T16:00:38.259Z,-2.40
2018-03-27T16:03:04.448Z,-2.20
2018-03-27T16:05:30.739Z,-2.20
2018-03-27T16:07:56.970Z,-2.20
2018-03-27T16:10:23.175Z,-2.20
2018-03-27T16:12:50.099Z,-2.40
2018-03-27T16:15:16.355Z,-2.50
2018-03-27T16:17:43.320Z,-2.40
2018-03-27T16:20:09.530Z,-2.40
2018-03-27T16:22:36.543Z,-2.40
2018-03-27T16:25:02.752Z,-2.50
2018-03-27T16:27:29.009Z,-2.40
2018-03-27T16:29:55.263Z,-2.40
2018-03-27T16:32:21.443Z,-2.40
2018-03-27T16:34:47.611Z,-2.40
2018-03-27T16:37:13.824Z,-2.40
2018-03-27T16:39:40.001Z,-2.50
2018-03-27T16:42:06.219Z,-2.50
2018-03-27T16:44:32.405Z,-2.40
2018-03-27T16:46:58.678Z,-2.40
2018-03-27T16:49:24.886Z,-2.50
2018-03-27T16:51:51.059Z,-2.50
2018-03-27T16:54:17.274Z,-2.70
2018-03-27T16:56:43.460Z,-2.80
2018-03-27T16:59:09.721Z,-2.90
2018-03-27T17:01:35.942Z,-2.90
2018-03-27T17:04:02.131Z,-3.00
2018-03-27T17:06:28.342Z,-3.10
2018-03-27T17:08:54.603Z,-3.10
2018-03-27T17:11:20.779Z,-3.20
2018-03-27T17:13:46.991Z,-3.10
2018-03-27T17:16:13.935Z,-3.20
2018-03-27T17:18:40.927Z,-3.20
2018-03-27T17:21:07.166Z,-3.20
2018-03-27T17:23:40.439Z,-3.20
2018-03-27T17:26:06.619Z,-3.30
2018-03-27T17:28:32.845Z,-3.30
2018-03-27T17:30:59.065Z,-3.40
2018-03-27T17:33:25.248Z,-3.40
2018-03-27T17:35:52.241Z,-3.40
2018-03-27T17:38:18.457Z,-3.50
2018-03-27T17:40:44.698Z,-3.50
2018-03-27T17:43:10.899Z,-3.60
2018-03-27T17:45:37.858Z,-3.70
2018-03-27T17:48:04.107Z,-3.70
2018-03-27T17:50:30.356Z,-3.60
2018-03-27T17:52:56.539Z,-3.60
2018-03-27T17:55:23.522Z,-3.70
2018-03-27T17:57:49.731Z,-3.70
2018-03-27T18:00:16.734Z,-3.70
2018-03-27T18:02:42.971Z,-3.80
2018-03-27T18:05:09.179Z,-3.80
2018-03-27T18:07:35.378Z,-3.80
2018-03-27T18:10:02.342Z,-3.90
2018-03-27T18:12:28.554Z,-3.90
2018-03-27T18:14:55.500Z,-3.80
2018-03-27T18:17:22.516Z,-3.80
2018-03-27T18:19:48.707Z,-3.90
2018-03-27T18:22:14.906Z,-3.90
2018-03-27T18:24:41.111Z,-3.80
2018-03-27T18:27:07.315Z,-3.90
2018-03-27T18:29:33.555Z,-3.90
2018-03-27T18:31:59.830Z,-3.90
2018-03-27T18:34:26.004Z,-3.90
2018-03-27T18:36:52.206Z,-3.90
2018-03-27T18:39:18.433Z,-3.90
2018-03-27T18:41:44.610Z,-3.90
2018-03-27T18:44:10.866Z,-3.90
2018-03-27T18:46:37.043Z,-3.90
2018-03-27T18:49:03.232Z,-3.90
2018-03-27T18:51:29.418Z,-4.00
2018-03-27T18:53:56.401Z,-4.10
2018-03-27T18:56:22.606Z,-4.20
2018-03-27T18:58:49.527Z,-4.10
2018-03-27T19:01:15.774Z,-4.20
2018-03-27T19:03:42.733Z,-4.20
2018-03-27T19:06:08.918Z,-4.30
2018-03-27T19:08:35.167Z,-4.20
2018-03-27T19:11:01.366Z,-4.20
2018-03-27T19:13:27.595Z,-4.30
2018-03-27T19:15:53.791Z,-4.30
2018-03-27T19:18:20.740Z,-4.30
2018-03-27T19:20:47.691Z,-4.30
2018-03-27T19:23:14.684Z,-4.40
2018-03-27T19:25:41.618Z,-4.40
2018-03-27T19:28:08.539Z,-4.40
2018-03-27T19:30:36.270Z,-4.50
2018-03-27T19:33:02.449Z,-4.50
2018-03-27T19:35:28.624Z,-4.40
2018-03-27T19:37:54.835Z,-4.40
2018-03-27T19:40:21.071Z,-4.50
2018-03-27T19:42:47.288Z,-4.50
2018-03-27T19:45:14.213Z,-4.50
2018-03-27T19:47:40.463Z,-4.60
2018-03-27T19:50:06.671Z,-4.60
2018-03-27T19:52:32.863Z,-4.60
2018-03-27T19:54:59.087Z,-4.60
2018-03-27T19:57:25.999Z,-4.70
2018-03-27T19:59:52.212Z,-4.80
2018-03-27T20:02:18.410Z,-4.60
2018-03-27T20:04:44.683Z,-4.60
2018-03-27T20:07:10.905Z,-4.60
2018-03-27T20:09:37.110Z,-4.60
2018-03-27T20:12:03.366Z,-4.60
2018-03-27T20:14:29.671Z,-4.70
2018-03-27T20:16:55.916Z,-4.80
2018-03-27T20:19:22.086Z,-4.80
2018-03-27T20:21:48.344Z,-4.80
2018-03-27T20:24:14.571Z,-4.80
2018-03-27T20:26:42.247Z,-5.00
2018-03-27T20:29:08.491Z,-5.00
2018-03-27T20:31:35.418Z,-5.10
2018-03-27T20:34:01.596Z,-5.10
2018-03-27T20:36:27.811Z,-5.10
2018-03-27T20:38:54.746Z,-5.20
2018-03-27T20:41:21.695Z,-5.30
2018-03-27T20:43:47.894Z,-5.40
2018-03-27T20:46:14.104Z,-5.40
2018-03-27T20:48:40.310Z,-5.40
2018-03-27T20:51:07.264Z,-5.50
2018-03-27T20:53:34.183Z,-5.50
2018-03-27T20:56:01.136Z,-5.50
2018-03-27T20:58:27.346Z,-5.60
2018-03-27T21:00:53.532Z,-5.50
2018-03-27T21:03:19.827Z,-5.50
2018-03-27T21:05:46.017Z,-5.50
2018-03-27T21:08:12.200Z,-5.50
2018-03-27T21:10:39.203Z,-5.60
2018-03-27T21:13:05.416Z,-5.60
2018-03-27T21:15:32.330Z,-5.60
2018-03-27T21:17:58.627Z,-5.70
2018-03-27T21:20:24.816Z,-5.60
2018-03-27T21:22:51.757Z,-5.70
2018-03-27T21:25:19.454Z,-5.90
2018-03-27T21:27:45.714Z,-5.90
2018-03-27T21:30:11.969Z,-5.90
2018-03-27T21:32:38.217Z,-5.90
2018-03-27T21:35:04.453Z,-5.90
2018-03-27T21:37:30.687Z,-5.90
2018-03-27T21:39:56.870Z,-5.90
2018-03-27T21:42:23.143Z,-5.90
2018-03-27T21:44:49.339Z,-5.90
2018-03-27T21:47:15.548Z,-6.00
2018-03-27T21:49:42.512Z,-6.00
2018-03-27T21:52:08.733Z,-6.10
2018-03-27T21:54:35.702Z,-6.10
2018-03-27T21:57:02.072Z,-6.10
2018-03-27T21:59:28.247Z,-6.20
2018-03-27T22:01:55.195Z,-6.30
2018-03-27T22:04:22.356Z,-6.40
2018-03-27T22:06:49.322Z,-6.40
2018-03-27T22:09:15.523Z,-6.50
2018-03-27T22:11:42.498Z,-6.60
2018-03-27T22:14:08.699Z,-6.70
2018-03-27T22:16:35.652Z,-6.90
2018-03-27T22:19:01.873Z,-7.00
2018-03-27T22:21:28.070Z,-7.20
2018-03-27T22:23:54.286Z,-7.40
2018-03-27T22:26:20.508Z,-7.50
2018-03-27T22:28:47.435Z,-7.60
2018-03-27T22:31:13.663Z,-7.70
2018-03-27T22:33:46.751Z,-7.70
2018-03-27T22:36:12.962Z,-7.80
2018-03-27T22:38:39.232Z,-7.90
2018-03-27T22:41:06.157Z,-8.00
2018-03-27T22:43:32.362Z,-8.00
2018-03-27T22:45:58.649Z,-8.10
2018-03-27T22:48:25.572Z,-8.40
2018-03-27T22:50:51.764Z,-8.40
2018-03-27T22:53:17.982Z,-8.50
2018-03-27T22:55:44.952Z,-8.70
2018-03-27T22:58:11.187Z,-8.80
2018-03-27T23:00:37.434Z,-8.80
2018-03-27T23:03:03.691Z,-8.90
2018-03-27T23:05:29.888Z,-8.90
2018-03-27T23:07:56.095Z,-9.00
2018-03-27T23:10:23.066Z,-9.20
2018-03-27T23:12:49.358Z,-9.30
2018-03-27T23:15:15.539Z,-9.30
2018-03-27T23:17:41.735Z,-9.30
2018-03-27T23:20:07.934Z,-9.30
2018-03-27T23:22:34.142Z,-9.30
2018-03-27T23:25:00.325Z,-9.30
2018-03-27T23:27:27.257Z,-9.20
2018-03-27T23:29:53.466Z,-9.30
2018-03-27T23:32:19.691Z,-9.20
2018-03-27T23:34:45.883Z,-9.10
2018-03-27T23:37:12.895Z,-9.00
2018-03-27T23:39:39.078Z,-9.00
2018-03-27T23:42:06.055Z,-9.00
2018-03-27T23:44:32.276Z,-9.00
2018-03-27T23:46:58.450Z,-9.00
2018-03-27T23:49:24.657Z,-9.00
2018-03-27T23:51:50.851Z,-8.90
2018-03-27T23:54:17.847Z,-9.00
2018-03-27T23:56:44.057Z,-9.10
2018-03-27T23:59:10.227Z,-9.00
